PWSweather.com
Personal Weather Stations
Station Observations
HARSTAD1
Kanebogen, HarstadNO 9411

KanebogenHarstadNO 9411

Lat: 68.7731054, Lon: 16.5496315

Elevation: 213

Station Type: Netatmo Weather Station

http://oddne.net/met/

Latest ConditionsUpdated 5:49:48 PM GMT+01:01 Monday, Sep 23, 2019
Currently Today's Max Today's Min Today's Average
Temperature 42.4°F5.8°C 46.8°F8.2°C 34.0°F1.1°C 40.3°F4.6°C
Dew Point 35.1°F1.7°C 39.9°F4.4°C 32.4°F0.2°C 35.5°F1.9°C
Winds 0.6 mph W1.0 kmh W 11.8 mph -19.0 kmh - - 3.2 mph 5.1 kmh
Wind Gusts 1.9 mph3.1 kmh 31.1 mph50.1 kmh - -
Humidity 75% 96% 67% 84%
Pressure 30.56 in1034.9 mb 30.69 in1039.3 mb 30.56 in1034.9 mb -
Hour Temp Dew Point Humidity Winds Wind Gusts Pressure Precip Precip Rate Daily Precip Total
05:49 PM 42.4°F5.8°C 35.1°F1.7°C 75% 0.6 mph W1.0 kmh W 1.9 mph3.1 kmh 30.56 in1034.9 mb 0.00 in0.0 mm 0.00 in0.0 mm 0.00 in0.0 mm
05:39 PM 42.4°F5.8°C 35.1°F1.7°C 75% 1.2 mph WSW1.9 kmh WSW 2.5 mph4.0 kmh 30.56 in1034.9 mb 0.00 in0.0 mm 0.00 in0.0 mm 0.00 in0.0 mm
05:29 PM 42.6°F5.9°C 34.9°F1.6°C 74% 1.2 mph 1.9 kmh 3.1 mph5.0 kmh 30.57 in1035.2 mb 0.00 in0.0 mm 0.00 in0.0 mm 0.00 in0.0 mm
05:19 PM 42.6°F5.9°C 34.9°F1.6°C 74% 1.2 mph NNE1.9 kmh NNE 3.1 mph5.0 kmh 30.57 in1035.2 mb 0.00 in0.0 mm 0.00 in0.0 mm 0.00 in0.0 mm
05:09 PM 42.8°F6.0°C 34.7°F1.5°C 73% 1.2 mph NNE1.9 kmh NNE 3.1 mph5.0 kmh 30.58 in1035.6 mb 0.00 in0.0 mm 0.00 in0.0 mm 0.00 in0.0 mm
04:59 PM 43.0°F6.1°C 34.5°F1.4°C 72% 0.6 mph SE1.0 kmh SE 3.1 mph5.0 kmh 30.58 in1035.6 mb 0.00 in0.0 mm 0.00 in0.0 mm 0.00 in0.0 mm
04:49 PM 43.0°F6.1°C 34.5°F1.4°C 72% 1.2 mph NW1.9 kmh NW 2.5 mph4.0 kmh 30.58 in1035.6 mb 0.00 in0.0 mm 0.00 in0.0 mm 0.00 in0.0 mm
04:38 PM 43.0°F6.1°C 34.9°F1.6°C 73% 1.2 mph NW1.9 kmh NW 3.1 mph5.0 kmh 30.57 in1035.2 mb 0.00 in0.0 mm 0.00 in0.0 mm 0.00 in0.0 mm
04:29 PM 43.2°F6.2°C 35.1°F1.7°C 73% 1.2 mph WNW1.9 kmh WNW 3.7 mph6.0 kmh 30.58 in1035.6 mb 0.00 in0.0 mm 0.00 in0.0 mm 0.00 in0.0 mm
04:19 PM 43.3°F6.3°C 34.9°F1.6°C 72% 1.2 mph W1.9 kmh W 3.1 mph5.0 kmh 30.57 in1035.2 mb 0.00 in0.0 mm 0.00 in0.0 mm 0.00 in0.0 mm
04:09 PM 43.3°F6.3°C 34.9°F1.6°C 72% 1.2 mph NNE1.9 kmh NNE 3.1 mph5.0 kmh 30.57 in1035.2 mb 0.00 in0.0 mm 0.00 in0.0 mm 0.00 in0.0 mm
03:59 PM 43.5°F6.4°C 35.1°F1.7°C 72% 1.2 mph NW1.9 kmh NW 3.7 mph6.0 kmh 30.57 in1035.2 mb 0.00 in0.0 mm 0.00 in0.0 mm 0.00 in0.0 mm
03:48 PM 43.5°F6.4°C 35.1°F1.7°C 72% 0.6 mph SW1.0 kmh SW 3.1 mph5.0 kmh 30.58 in1035.6 mb 0.00 in0.0 mm 0.00 in0.0 mm 0.00 in0.0 mm
03:39 PM 43.7°F6.5°C 34.9°F1.6°C 71% 0.6 mph W1.0 kmh W 1.9 mph3.1 kmh 30.58 in1035.6 mb 0.00 in0.0 mm 0.00 in0.0 mm 0.00 in0.0 mm
03:30 PM 43.7°F6.5°C 35.2°F1.8°C 72% 0.6 mph W1.0 kmh W 2.5 mph4.0 kmh 30.58 in1035.6 mb 0.00 in0.0 mm 0.00 in0.0 mm 0.00 in0.0 mm
03:18 PM 43.9°F6.6°C 35.4°F1.9°C 72% 1.2 mph N1.9 kmh N 1.9 mph3.1 kmh 30.58 in1035.6 mb 0.00 in0.0 mm 0.00 in0.0 mm 0.00 in0.0 mm
03:09 PM 43.9°F6.6°C 35.8°F2.1°C 73% 1.2 mph WSW1.9 kmh WSW 1.9 mph3.1 kmh 30.59 in1035.9 mb 0.00 in0.0 mm 0.00 in0.0 mm 0.00 in0.0 mm
02:59 PM 43.9°F6.6°C 35.4°F1.9°C 72% 1.2 mph SSW1.9 kmh SSW 3.1 mph5.0 kmh 30.59 in1035.9 mb 0.00 in0.0 mm 0.00 in0.0 mm 0.00 in0.0 mm
02:49 PM 44.1°F6.7°C 35.2°F1.8°C 71% 1.2 mph E1.9 kmh E 3.1 mph5.0 kmh 30.59 in1035.9 mb 0.00 in0.0 mm 0.00 in0.0 mm 0.00 in0.0 mm
02:39 PM 44.2°F6.8°C 35.2°F1.8°C 71% 1.2 mph E1.9 kmh E 3.7 mph6.0 kmh 30.59 in1035.9 mb 0.00 in0.0 mm 0.00 in0.0 mm 0.00 in0.0 mm
02:29 PM 44.6°F7.0°C 35.2°F1.8°C 70% 1.9 mph E3.1 kmh E 4.4 mph7.1 kmh 30.59 in1035.9 mb 0.00 in0.0 mm 0.00 in0.0 mm 0.00 in0.0 mm
02:19 PM 44.8°F7.1°C 36.1°F2.3°C 72% 0.6 mph E1.0 kmh E 3.7 mph6.0 kmh 30.59 in1035.9 mb 0.00 in0.0 mm 0.00 in0.0 mm 0.00 in0.0 mm
02:09 PM 44.6°F7.0°C 35.6°F2.0°C 71% 1.9 mph SW3.1 kmh SW 3.7 mph6.0 kmh 30.59 in1035.9 mb 0.00 in0.0 mm 0.00 in0.0 mm 0.00 in0.0 mm
01:59 PM 44.6°F7.0°C 36.0°F2.2°C 72% 1.2 mph WSW1.9 kmh WSW 3.1 mph5.0 kmh 30.60 in1036.2 mb 0.00 in0.0 mm 0.00 in0.0 mm 0.00 in0.0 mm
01:49 PM 44.6°F7.0°C 36.0°F2.2°C 72% 1.2 mph WSW1.9 kmh WSW 3.1 mph5.0 kmh 30.60 in1036.2 mb 0.00 in0.0 mm 0.00 in0.0 mm 0.00 in0.0 mm
01:39 PM 44.4°F6.9°C 35.8°F2.1°C 72% 1.9 mph SE3.1 kmh SE 5.0 mph8.0 kmh 30.60 in1036.2 mb 0.00 in0.0 mm 0.00 in0.0 mm 0.00 in0.0 mm
01:29 PM 44.4°F6.9°C 35.1°F1.7°C 70% 1.9 mph E3.1 kmh E 5.6 mph9.0 kmh 30.60 in1036.2 mb 0.00 in0.0 mm 0.00 in0.0 mm 0.00 in0.0 mm
01:19 PM 44.6°F7.0°C 34.9°F1.6°C 69% 3.1 mph E5.0 kmh E 5.6 mph9.0 kmh 30.60 in1036.2 mb 0.00 in0.0 mm 0.00 in0.0 mm 0.00 in0.0 mm
01:09 PM 44.6°F7.0°C 34.2°F1.2°C 67% 3.1 mph ENE5.0 kmh ENE 7.5 mph12.1 kmh 30.60 in1036.2 mb 0.00 in0.0 mm 0.00 in0.0 mm 0.00 in0.0 mm
12:59 PM 44.6°F7.0°C 35.6°F2.0°C 71% 3.1 mph SW5.0 kmh SW 7.5 mph12.1 kmh 30.60 in1036.2 mb 0.00 in0.0 mm 0.00 in0.0 mm 0.00 in0.0 mm
12:48 PM 44.6°F7.0°C 36.0°F2.2°C 72% 1.9 mph ENE3.1 kmh ENE 5.6 mph9.0 kmh 30.60 in1036.2 mb 0.00 in0.0 mm 0.00 in0.0 mm 0.00 in0.0 mm
12:39 PM 44.8°F7.1°C 36.5°F2.5°C 73% 2.5 mph ENE4.0 kmh ENE 4.4 mph7.1 kmh 30.61 in1036.6 mb 0.00 in0.0 mm 0.00 in0.0 mm 0.00 in0.0 mm
12:29 PM 44.8°F7.1°C 36.5°F2.5°C 73% 1.9 mph SW3.1 kmh SW 3.1 mph5.0 kmh 30.61 in1036.6 mb 0.00 in0.0 mm 0.00 in0.0 mm 0.00 in0.0 mm
12:18 PM 44.6°F7.0°C 36.0°F2.2°C 72% 1.2 mph WSW1.9 kmh WSW 4.4 mph7.1 kmh 30.61 in1036.6 mb 0.00 in0.0 mm 0.00 in0.0 mm 0.00 in0.0 mm
12:09 PM 44.6°F7.0°C 36.3°F2.4°C 73% 1.2 mph W1.9 kmh W 3.1 mph5.0 kmh 30.61 in1036.6 mb 0.00 in0.0 mm 0.00 in0.0 mm 0.00 in0.0 mm
11:59 AM 44.6°F7.0°C 36.0°F2.2°C 72% 1.2 mph S1.9 kmh S 2.5 mph4.0 kmh 30.61 in1036.6 mb 0.00 in0.0 mm 0.00 in0.0 mm 0.00 in0.0 mm
11:49 AM 44.8°F7.1°C 36.5°F2.5°C 73% 1.2 mph SE1.9 kmh SE 3.7 mph6.0 kmh 30.61 in1036.6 mb 0.00 in0.0 mm 0.00 in0.0 mm 0.00 in0.0 mm
11:39 AM 44.8°F7.1°C 36.1°F2.3°C 72% 1.9 mph SE3.1 kmh SE 4.4 mph7.1 kmh 30.62 in1036.9 mb 0.00 in0.0 mm 0.00 in0.0 mm 0.00 in0.0 mm
11:29 AM 45.0°F7.2°C 36.3°F2.4°C 72% 1.9 mph E3.1 kmh E 4.4 mph7.1 kmh 30.62 in1036.9 mb 0.00 in0.0 mm 0.00 in0.0 mm 0.00 in0.0 mm
11:18 AM 45.5°F7.5°C 36.5°F2.5°C 71% 1.9 mph E3.1 kmh E 5.6 mph9.0 kmh 30.63 in1037.3 mb 0.00 in0.0 mm 0.00 in0.0 mm 0.00 in0.0 mm
11:09 AM 45.9°F7.7°C 36.9°F2.7°C 71% 1.9 mph NW3.1 kmh NW 3.7 mph6.0 kmh 30.62 in1036.9 mb 0.00 in0.0 mm 0.00 in0.0 mm 0.00 in0.0 mm
10:59 AM 45.9°F7.7°C 37.2°F2.9°C 72% 5.6 mph SW9.0 kmh SW 11.2 mph18.0 kmh 30.62 in1036.9 mb 0.00 in0.0 mm 0.00 in0.0 mm 0.00 in0.0 mm
10:49 AM 45.9°F7.7°C 37.6°F3.1°C 73% 3.1 mph WSW5.0 kmh WSW 5.6 mph9.0 kmh 30.62 in1036.9 mb 0.00 in0.0 mm 0.00 in0.0 mm 0.00 in0.0 mm
10:38 AM 46.0°F7.8°C 37.4°F3.0°C 72% 3.1 mph WSW5.0 kmh WSW 5.6 mph9.0 kmh 30.62 in1036.9 mb 0.00 in0.0 mm 0.00 in0.0 mm 0.00 in0.0 mm
10:29 AM 46.6°F8.1°C 38.3°F3.5°C 73% 8.1 mph SW13.0 kmh SW 12.4 mph20.0 kmh 30.62 in1036.9 mb 0.00 in0.0 mm 0.00 in0.0 mm 0.00 in0.0 mm
10:19 AM 46.6°F8.1°C 38.3°F3.5°C 73% 11.2 mph SW18.0 kmh SW 21.8 mph35.1 kmh 30.62 in1036.9 mb 0.00 in0.0 mm 0.00 in0.0 mm 0.00 in0.0 mm
10:09 AM 46.8°F8.2°C 39.2°F4.0°C 75% 9.9 mph SW15.9 kmh SW 26.1 mph42.0 kmh 30.63 in1037.3 mb 0.00 in0.0 mm 0.00 in0.0 mm 0.00 in0.0 mm
09:59 AM 46.2°F7.9°C 39.0°F3.9°C 76% 9.3 mph SW15.0 kmh SW 16.2 mph26.1 kmh 30.63 in1037.3 mb 0.00 in0.0 mm 0.00 in0.0 mm 0.00 in0.0 mm
09:49 AM 46.0°F7.8°C 39.2°F4.0°C 77% 10.6 mph WSW17.1 kmh WSW 21.8 mph35.1 kmh 30.63 in1037.3 mb 0.00 in0.0 mm 0.00 in0.0 mm 0.00 in0.0 mm
09:39 AM 46.0°F7.8°C 39.7°F4.3°C 79% 10.6 mph WSW17.1 kmh WSW 22.4 mph36.0 kmh 30.63 in1037.3 mb 0.00 in0.0 mm 0.00 in0.0 mm 0.00 in0.0 mm
09:29 AM 45.1°F7.3°C 39.6°F4.2°C 81% 9.9 mph WSW15.9 kmh WSW 20.5 mph33.0 kmh 30.63 in1037.3 mb 0.00 in0.0 mm 0.00 in0.0 mm 0.00 in0.0 mm
09:19 AM 44.6°F7.0°C 39.9°F4.4°C 84% 10.6 mph SW17.1 kmh SW 31.1 mph50.1 kmh 30.63 in1037.3 mb 0.00 in0.0 mm 0.00 in0.0 mm 0.00 in0.0 mm
09:09 AM 44.2°F6.8°C 39.9°F4.4°C 85% 11.2 mph SW18.0 kmh SW 20.5 mph33.0 kmh 30.63 in1037.3 mb 0.00 in0.0 mm 0.00 in0.0 mm 0.00 in0.0 mm
08:59 AM 42.8°F6.0°C 39.4°F4.1°C 88% 5.6 mph SW9.0 kmh SW 12.4 mph20.0 kmh 30.63 in1037.3 mb 0.00 in0.0 mm 0.00 in0.0 mm 0.00 in0.0 mm
08:49 AM 42.1°F5.6°C 38.1°F3.4°C 86% 5.6 mph SW9.0 kmh SW 9.3 mph15.0 kmh 30.63 in1037.3 mb 0.00 in0.0 mm 0.00 in0.0 mm 0.00 in0.0 mm
08:39 AM 41.7°F5.4°C 39.6°F4.2°C 92% 11.2 mph SW18.0 kmh SW 26.7 mph43.0 kmh 30.63 in1037.3 mb 0.00 in0.0 mm 0.00 in0.0 mm 0.00 in0.0 mm
08:29 AM 41.7°F5.4°C 39.6°F4.2°C 92% 11.2 mph SW18.0 kmh SW 26.7 mph43.0 kmh 30.63 in1037.3 mb 0.00 in0.0 mm 0.00 in0.0 mm 0.00 in0.0 mm
08:19 AM 40.8°F4.9°C 38.8°F3.8°C 93% 11.2 mph SW18.0 kmh SW 19.3 mph31.1 kmh 30.64 in1037.6 mb 0.00 in0.0 mm 0.00 in0.0 mm 0.00 in0.0 mm
08:09 AM 39.9°F4.4°C 38.1°F3.4°C 93% 11.2 mph SW18.0 kmh SW 21.8 mph35.1 kmh 30.64 in1037.6 mb 0.00 in0.0 mm 0.00 in0.0 mm 0.00 in0.0 mm
07:59 AM 39.6°F4.2°C 37.9°F3.3°C 94% 11.8 mph SW19.0 kmh SW 21.8 mph35.1 kmh 30.64 in1037.6 mb 0.00 in0.0 mm 0.00 in0.0 mm 0.00 in0.0 mm
07:49 AM 39.2°F4.0°C 37.9°F3.3°C 95% 11.2 mph NW18.0 kmh NW 29.2 mph47.0 kmh 30.64 in1037.6 mb 0.00 in0.0 mm 0.00 in0.0 mm 0.00 in0.0 mm
07:39 AM 38.5°F3.6°C 37.2°F2.9°C 95% 11.8 mph WNW19.0 kmh WNW 25.5 mph41.0 kmh 30.64 in1037.6 mb 0.00 in0.0 mm 0.00 in0.0 mm 0.00 in0.0 mm
07:29 AM 37.6°F3.1°C 36.5°F2.5°C 96% 10.6 mph W17.1 kmh W 23.0 mph37.0 kmh 30.64 in1037.6 mb 0.00 in0.0 mm 0.00 in0.0 mm 0.00 in0.0 mm
07:19 AM 36.3°F2.4°C 35.2°F1.8°C 96% 8.7 mph SW14.0 kmh SW 14.3 mph23.0 kmh 30.64 in1037.6 mb 0.00 in0.0 mm 0.00 in0.0 mm 0.00 in0.0 mm
07:09 AM 35.6°F2.0°C 34.5°F1.4°C 96% 7.5 mph WSW12.1 kmh WSW 9.3 mph15.0 kmh 30.64 in1037.6 mb 0.00 in0.0 mm 0.00 in0.0 mm 0.00 in0.0 mm
06:59 AM 35.1°F1.7°C 34.0°F1.1°C 96% 3.7 mph WSW6.0 kmh WSW 7.5 mph12.1 kmh 30.64 in1037.6 mb 0.00 in0.0 mm 0.00 in0.0 mm 0.00 in0.0 mm
06:49 AM 34.5°F1.4°C 33.4°F0.8°C 96% 1.9 mph WSW3.1 kmh WSW 3.1 mph5.0 kmh 30.65 in1037.9 mb 0.00 in0.0 mm 0.00 in0.0 mm 0.00 in0.0 mm
06:39 AM 34.2°F1.2°C 32.9°F0.5°C 95% 1.2 mph W1.9 kmh W 2.5 mph4.0 kmh 30.65 in1037.9 mb 0.00 in0.0 mm 0.00 in0.0 mm 0.00 in0.0 mm
06:29 AM 34.0°F1.1°C 32.7°F0.4°C 95% 1.2 mph W1.9 kmh W 3.1 mph5.0 kmh 30.65 in1037.9 mb 0.00 in0.0 mm 0.00 in0.0 mm 0.00 in0.0 mm
06:19 AM 34.0°F1.1°C 32.4°F0.2°C 94% 1.2 mph W1.9 kmh W 3.1 mph5.0 kmh 30.65 in1037.9 mb 0.00 in0.0 mm 0.00 in0.0 mm 0.00 in0.0 mm
06:09 AM 34.2°F1.2°C 32.5°F0.3°C 94% 2.5 mph W4.0 kmh W 4.4 mph7.1 kmh 30.64 in1037.6 mb 0.00 in0.0 mm 0.00 in0.0 mm 0.00 in0.0 mm
05:59 AM 34.7°F1.5°C 33.1°F0.6°C 94% 0.6 mph NW1.0 kmh NW 2.5 mph4.0 kmh 30.65 in1037.9 mb 0.00 in0.0 mm 0.00 in0.0 mm 0.00 in0.0 mm
05:49 AM 34.7°F1.5°C 33.1°F0.6°C 94% 1.9 mph WNW3.1 kmh WNW 3.1 mph5.0 kmh 30.65 in1037.9 mb 0.00 in0.0 mm 0.00 in0.0 mm 0.00 in0.0 mm
05:39 AM 34.9°F1.6°C 33.3°F0.7°C 94% 1.2 mph NW1.9 kmh NW 3.1 mph5.0 kmh 30.65 in1037.9 mb 0.00 in0.0 mm 0.00 in0.0 mm 0.00 in0.0 mm
05:29 AM 34.9°F1.6°C 33.3°F0.7°C 94% 1.2 mph NW1.9 kmh NW 3.1 mph5.0 kmh 30.65 in1037.9 mb 0.00 in0.0 mm 0.00 in0.0 mm 0.00 in0.0 mm
05:19 AM 35.2°F1.8°C 33.6°F0.9°C 94% 1.2 mph NW1.9 kmh NW 2.5 mph4.0 kmh 30.65 in1037.9 mb 0.00 in0.0 mm 0.00 in0.0 mm 0.00 in0.0 mm
05:09 AM 35.6°F2.0°C 34.0°F1.1°C 94% 0.6 mph N1.0 kmh N 2.5 mph4.0 kmh 30.65 in1037.9 mb 0.00 in0.0 mm 0.00 in0.0 mm 0.00 in0.0 mm
04:59 AM 35.6°F2.0°C 34.3°F1.3°C 95% 0.6 mph NW1.0 kmh NW 1.9 mph3.1 kmh 30.65 in1037.9 mb 0.00 in0.0 mm 0.00 in0.0 mm 0.00 in0.0 mm
04:48 AM 35.6°F2.0°C 34.3°F1.3°C 95% 1.2 mph NNW1.9 kmh NNW 2.5 mph4.0 kmh 30.65 in1037.9 mb 0.00 in0.0 mm 0.00 in0.0 mm 0.00 in0.0 mm
04:39 AM 35.6°F2.0°C 34.3°F1.3°C 95% 1.2 mph NNW1.9 kmh NNW 2.5 mph4.0 kmh 30.65 in1037.9 mb 0.00 in0.0 mm 0.00 in0.0 mm 0.00 in0.0 mm
04:29 AM 35.6°F2.0°C 34.3°F1.3°C 95% 0.6 mph NNW1.0 kmh NNW 2.5 mph4.0 kmh 30.66 in1038.3 mb 0.00 in0.0 mm 0.00 in0.0 mm 0.00 in0.0 mm
04:19 AM 35.4°F1.9°C 34.2°F1.2°C 95% 1.2 mph NW1.9 kmh NW 2.5 mph4.0 kmh 30.66 in1038.3 mb 0.00 in0.0 mm 0.00 in0.0 mm 0.00 in0.0 mm
04:09 AM 35.4°F1.9°C 34.2°F1.2°C 95% 1.2 mph NW1.9 kmh NW 2.5 mph4.0 kmh 30.66 in1038.3 mb 0.00 in0.0 mm 0.00 in0.0 mm 0.00 in0.0 mm
03:59 AM 35.4°F1.9°C 34.2°F1.2°C 95% 0.6 mph NNW1.0 kmh NNW 2.5 mph4.0 kmh 30.66 in1038.3 mb 0.00 in0.0 mm 0.00 in0.0 mm 0.00 in0.0 mm
03:49 AM 35.4°F1.9°C 34.2°F1.2°C 95% 0.6 mph NW1.0 kmh NW 1.9 mph3.1 kmh 30.67 in1038.6 mb 0.00 in0.0 mm 0.00 in0.0 mm 0.00 in0.0 mm
03:39 AM 35.4°F1.9°C 34.2°F1.2°C 95% 1.2 mph NW1.9 kmh NW 3.1 mph5.0 kmh 30.67 in1038.6 mb 0.00 in0.0 mm 0.00 in0.0 mm 0.00 in0.0 mm
03:28 AM 35.4°F1.9°C 34.2°F1.2°C 95% 1.2 mph NW1.9 kmh NW 3.1 mph5.0 kmh 30.67 in1038.6 mb 0.00 in0.0 mm 0.00 in0.0 mm 0.00 in0.0 mm
03:19 AM 35.4°F1.9°C 34.2°F1.2°C 95% 1.2 mph N1.9 kmh N 3.1 mph5.0 kmh 30.67 in1038.6 mb 0.00 in0.0 mm 0.00 in0.0 mm 0.00 in0.0 mm
03:09 AM 35.2°F1.8°C 34.0°F1.1°C 95% 1.2 mph NW1.9 kmh NW 3.1 mph5.0 kmh 30.67 in1038.6 mb 0.00 in0.0 mm 0.00 in0.0 mm 0.00 in0.0 mm
02:59 AM 35.2°F1.8°C 34.0°F1.1°C 95% 1.2 mph NW1.9 kmh NW 2.5 mph4.0 kmh 30.67 in1038.6 mb 0.00 in0.0 mm 0.00 in0.0 mm 0.00 in0.0 mm
02:49 AM 35.2°F1.8°C 34.0°F1.1°C 95% 1.9 mph NW3.1 kmh NW 3.1 mph5.0 kmh 30.67 in1038.6 mb 0.00 in0.0 mm 0.00 in0.0 mm 0.00 in0.0 mm
02:38 AM 35.2°F1.8°C 34.0°F1.1°C 95% 1.2 mph NW1.9 kmh NW 3.7 mph6.0 kmh 30.67 in1038.6 mb 0.00 in0.0 mm 0.00 in0.0 mm 0.00 in0.0 mm
02:29 AM 35.4°F1.9°C 33.8°F1.0°C 94% 1.9 mph WNW3.1 kmh WNW 3.1 mph5.0 kmh 30.67 in1038.6 mb 0.00 in0.0 mm 0.00 in0.0 mm 0.00 in0.0 mm
02:19 AM 35.4°F1.9°C 34.2°F1.2°C 95% 1.9 mph NW3.1 kmh NW 3.1 mph5.0 kmh 30.67 in1038.6 mb 0.00 in0.0 mm 0.00 in0.0 mm 0.00 in0.0 mm
02:09 AM 35.6°F2.0°C 34.3°F1.3°C 95% 1.2 mph WNW1.9 kmh WNW 2.5 mph4.0 kmh 30.67 in1038.6 mb 0.00 in0.0 mm 0.00 in0.0 mm 0.00 in0.0 mm
01:59 AM 35.6°F2.0°C 34.3°F1.3°C 95% 1.2 mph NW1.9 kmh NW 3.1 mph5.0 kmh 30.68 in1038.9 mb 0.00 in0.0 mm 0.00 in0.0 mm 0.00 in0.0 mm
01:49 AM 35.6°F2.0°C 34.3°F1.3°C 95% 1.2 mph NW1.9 kmh NW 2.5 mph4.0 kmh 30.68 in1038.9 mb 0.00 in0.0 mm 0.00 in0.0 mm 0.00 in0.0 mm
01:39 AM 35.6°F2.0°C 34.3°F1.3°C 95% 1.9 mph NW3.1 kmh NW 3.1 mph5.0 kmh 30.68 in1038.9 mb 0.00 in0.0 mm 0.00 in0.0 mm 0.00 in0.0 mm
01:29 AM 35.6°F2.0°C 34.3°F1.3°C 95% 1.9 mph NNW3.1 kmh NNW 3.1 mph5.0 kmh 30.68 in1038.9 mb 0.00 in0.0 mm 0.00 in0.0 mm 0.00 in0.0 mm
01:19 AM 35.8°F2.1°C 34.5°F1.4°C 95% 1.2 mph NW1.9 kmh NW 3.1 mph5.0 kmh 30.68 in1038.9 mb 0.00 in0.0 mm 0.00 in0.0 mm 0.00 in0.0 mm
01:09 AM 36.0°F2.2°C 34.7°F1.5°C 95% 1.9 mph WNW3.1 kmh WNW 3.1 mph5.0 kmh 30.68 in1038.9 mb 0.00 in0.0 mm 0.00 in0.0 mm 0.00 in0.0 mm
12:59 AM 36.0°F2.2°C 34.7°F1.5°C 95% 1.9 mph NW3.1 kmh NW 3.1 mph5.0 kmh 30.68 in1038.9 mb 0.00 in0.0 mm 0.00 in0.0 mm 0.00 in0.0 mm
12:49 AM 36.0°F2.2°C 34.7°F1.5°C 95% 1.9 mph WNW3.1 kmh WNW 2.5 mph4.0 kmh 30.68 in1038.9 mb 0.00 in0.0 mm 0.00 in0.0 mm 0.00 in0.0 mm
12:39 AM 36.0°F2.2°C 34.7°F1.5°C 95% 1.2 mph W1.9 kmh W 2.5 mph4.0 kmh 30.68 in1038.9 mb 0.00 in0.0 mm 0.00 in0.0 mm 0.00 in0.0 mm
12:29 AM 36.1°F2.3°C 34.9°F1.6°C 95% 1.2 mph W1.9 kmh W 2.5 mph4.0 kmh 30.69 in1039.3 mb 0.00 in0.0 mm 0.00 in0.0 mm 0.00 in0.0 mm
12:19 AM 36.1°F2.3°C 34.5°F1.4°C 94% 1.9 mph W3.1 kmh W 3.1 mph5.0 kmh 30.69 in1039.3 mb 0.00 in0.0 mm 0.00 in0.0 mm 0.00 in0.0 mm
12:09 AM 36.3°F2.4°C 34.7°F1.5°C 94% 1.9 mph W3.1 kmh W 3.1 mph5.0 kmh 30.68 in1038.9 mb 0.00 in0.0 mm 0.00 in0.0 mm 0.00 in0.0 mm